Time;durP1;ratioP1;P1;durP2;ratioP2;P2;SDS_P1;SDS_P2;PMS_P1;PMS_P2;Temp;Humidity;BMP_temperature;BMP_pressure;BME280_temperature;BME280_humidity;BME280_pressure;Samples;Min_cycle;Max_cycle;Signal;HPM_P1;HPM_P2
2023/08/17 03:57:56;;;;;;;14.18;9.98;;;;;;;20.08;100.00;100604.59;5705052;27;20103;-84
2023/08/17 04:01:00;;;;;;;12.13;9.63;;;;;;;20.13;100.00;100615.66;5403372;32;33490;-84
2023/08/17 04:04:05;;;;;;;11.80;8.75;;;;;;;20.16;100.00;100615.19;5403379;32;33838;-85
2023/08/17 04:07:08;;;;;;;10.75;9.05;;;;;;;20.17;100.00;100614.09;5403424;32;34500;-84
2023/08/17 04:10:11;;;;;;;13.93;9.55;;;;;;;20.19;100.00;100616.63;5417999;32;34370;-84
2023/08/17 04:13:14;;;;;;;12.77;9.10;;;;;;;20.19;100.00;100614.72;5392438;32;33596;-85
2023/08/17 04:16:17;;;;;;;12.65;9.23;;;;;;;20.22;100.00;100610.69;5391831;32;33814;-85
2023/08/17 04:19:19;;;;;;;13.30;9.77;;;;;;;20.22;100.00;100622.44;5380394;32;34438;-85
2023/08/17 04:22:22;;;;;;;12.32;9.15;;;;;;;20.30;100.00;100615.78;5392523;32;34824;-84
2023/08/17 04:25:25;;;;;;;11.02;8.50;;;;;;;20.32;100.00;100630.88;5397127;32;34009;-85
2023/08/17 04:28:28;;;;;;;13.55;9.20;;;;;;;20.37;100.00;100630.19;5428152;32;35416;-84
2023/08/17 04:31:31;;;;;;;11.90;9.27;;;;;;;20.37;100.00;100636.47;5405139;32;34089;-85
2023/08/17 04:34:35;;;;;;;11.40;9.00;;;;;;;20.42;100.00;100630.31;5415654;32;34522;-85
2023/08/17 04:37:39;;;;;;;10.32;8.50;;;;;;;20.42;100.00;100630.31;5403738;32;34007;-84
2023/08/17 04:40:44;;;;;;;13.38;9.60;;;;;;;20.42;100.00;100633.03;5422054;32;34098;-84
2023/08/17 04:43:49;;;;;;;13.10;9.82;;;;;;;20.48;100.00;100642.22;5395330;32;33433;-84
2023/08/17 04:46:52;;;;;;;11.25;8.57;;;;;;;20.52;100.00;100641.50;5394400;32;33884;-84
2023/08/17 04:49:55;;;;;;;12.07;8.70;;;;;;;20.54;100.00;100641.28;5408644;32;33927;-84
2023/08/17 04:52:58;;;;;;;11.80;9.23;;;;;;;20.55;100.00;100641.03;5414961;32;34742;-84
2023/08/17 04:56:03;;;;;;;13.82;9.13;;;;;;;20.59;100.00;100642.25;5402877;32;33500;-84
2023/08/17 04:59:06;;;;;;;11.27;8.32;;;;;;;20.61;100.00;100642.00;5416267;32;34173;-84
2023/08/17 05:02:10;;;;;;;11.10;8.70;;;;;;;20.69;100.00;100640.81;5390758;32;33938;-84
2023/08/17 05:05:13;;;;;;;13.38;8.75;;;;;;;20.71;100.00;100638.66;5428935;32;33696;-84
2023/08/17 05:08:16;;;;;;;11.82;8.63;;;;;;;20.82;100.00;100635.09;5431207;32;35220;-83
2023/08/17 05:11:19;;;;;;;11.45;8.35;;;;;;;20.90;100.00;100642.94;5391234;32;34689;-84
2023/08/17 05:14:22;;;;;;;11.75;8.80;;;;;;;21.05;100.00;100639.69;5416427;32;33928;-84
2023/08/17 05:17:25;;;;;;;9.52;8.52;;;;;;;21.25;100.00;100636.56;5416856;32;33793;-84
2023/08/17 05:20:29;;;;;;;11.20;9.13;;;;;;;21.40;100.00;100642.38;5415905;32;34182;-84
2023/08/17 05:23:32;;;;;;;14.00;9.65;;;;;;;21.71;100.00;100641.06;5403608;32;33811;-84
2023/08/17 05:26:34;;;;;;;11.93;8.63;;;;;;;21.87;100.00;100644.94;5403344;32;35301;-84
2023/08/17 05:29:37;;;;;;;13.05;8.68;;;;;;;22.07;100.00;100643.63;5379443;32;35986;-86
2023/08/17 05:32:40;;;;;;;11.38;8.80;;;;;;;22.38;100.00;100642.28;5416278;32;33464;-88
2023/08/17 05:35:44;;;;;;;12.37;9.50;;;;;;;22.51;100.00;100643.84;5391650;32;34066;-87
2023/08/17 05:38:47;;;;;;;11.12;8.82;;;;;;;22.81;100.00;100646.22;5391254;32;33750;-88
2023/08/17 05:41:50;;;;;;;11.43;9.07;;;;;;;22.72;100.00;100642.25;5390604;32;33823;-84
2023/08/17 05:44:52;;;;;;;12.90;8.95;;;;;;;22.90;100.00;100641.94;5415184;32;34536;-84
2023/08/17 05:47:57;;;;;;;10.40;8.68;;;;;;;23.00;100.00;100649.53;5391025;32;34644;-84
2023/08/17 05:51:00;;;;;;;11.45;8.63;;;;;;;23.24;100.00;100637.22;5390325;32;33932;-84
2023/08/17 05:54:04;;;;;;;12.07;8.63;;;;;;;23.42;100.00;100644.31;5416059;32;33398;-83
2023/08/17 05:57:07;;;;;;;12.30;8.93;;;;;;;23.64;100.00;100644.28;5390741;32;33735;-84
2023/08/17 06:00:12;;;;;;;10.43;9.30;;;;;;;23.82;100.00;100645.06;5402593;32;34548;-83
2023/08/17 06:03:18;;;;;;;10.90;8.32;;;;;;;24.08;100.00;100646.97;5401919;32;33495;-84
2023/08/17 06:06:21;;;;;;;9.50;6.65;;;;;;;24.24;100.00;100644.34;5402705;32;33626;-84
2023/08/17 06:09:24;;;;;;;8.18;6.37;;;;;;;24.29;100.00;100638.91;5416025;32;33877;-84
2023/08/17 06:12:27;;;;;;;11.23;7.12;;;;;;;24.37;100.00;100635.66;5390285;32;34016;-84
2023/08/17 06:15:30;;;;;;;10.07;6.68;;;;;;;24.30;100.00;100630.34;5415844;32;33800;-84
2023/08/17 06:18:32;;;;;;;9.63;6.15;;;;;;;24.24;100.00;100636.91;5390560;32;33536;-84
2023/08/17 06:21:36;;;;;;;8.27;6.10;;;;;;;24.27;100.00;100641.06;5415816;32;34402;-83
2023/08/17 06:24:38;;;;;;;10.13;6.70;;;;;;;24.13;100.00;100635.16;5415674;32;33707;-84
2023/08/17 06:27:43;;;;;;;10.75;6.70;;;;;;;23.97;100.00;100640.53;5402746;32;33583;-84
2023/08/17 06:30:45;;;;;;;7.87;6.53;;;;;;;23.83;100.00;100632.97;5407830;32;34838;-83
2023/08/17 06:33:48;;;;;;;9.75;7.15;;;;;;;23.99;100.00;100626.53;5424957;32;33831;-83
2023/08/17 06:36:59;;;;;;;9.52;7.00;;;;;;;24.09;100.00;100629.38;5390038;32;34902;-83
2023/08/17 06:40:05;;;;;;;7.32;6.57;;;;;;;24.09;100.00;100626.59;5407395;32;34286;-83
2023/08/17 06:43:09;;;;;;;7.22;6.40;;;;;;;23.99;100.00;100627.34;5404949;32;33723;-84
2023/08/17 06:46:12;;;;;;;8.15;6.53;;;;;;;24.33;100.00;100610.56;5417967;32;33914;-84
2023/08/17 06:49:15;;;;;;;7.45;6.43;;;;;;;24.67;100.00;100613.87;5407077;32;33882;-82
2023/08/17 06:52:18;;;;;;;7.30;5.72;;;;;;;25.08;100.00;100597.56;5401962;32;33609;-84
2023/08/17 06:55:21;;;;;;;8.05;6.00;;;;;;;25.43;100.00;100609.84;5401025;32;33828;-84
2023/08/17 06:58:24;;;;;;;7.70;5.75;;;;;;;25.55;100.00;100607.66;5389598;32;34450;-84
2023/08/17 07:01:28;;;;;;;8.75;6.03;;;;;;;25.15;100.00;100626.81;5388484;32;34049;-84
2023/08/17 07:04:31;;;;;;;7.82;5.95;;;;;;;25.08;100.00;100627.03;5401548;32;34412;-84
2023/08/17 07:07:34;;;;;;;9.05;6.30;;;;;;;25.22;100.00;100624.66;5415394;32;35002;-84
2023/08/17 07:10:37;;;;;;;7.87;5.53;;;;;;;24.78;100.00;100631.28;5390776;32;34576;-84
2023/08/17 07:13:40;;;;;;;6.32;5.60;;;;;;;24.39;100.00;100628.78;5402706;32;34567;-84
2023/08/17 07:16:44;;;;;;;7.85;6.10;;;;;;;24.52;100.00;100633.03;5418133;32;33870;-84
2023/08/17 07:19:46;;;;;;;6.75;5.78;;;;;;;24.18;100.00;100626.97;5405521;32;33475;-83
2023/08/17 07:23:09;;;;;;;6.72;5.60;;;;;;;24.21;100.00;100635.50;5413387;32;34056;-84
2023/08/17 07:26:12;;;;;;;7.85;5.20;;;;;;;24.03;100.00;100635.09;5412855;32;34168;-85
2023/08/17 07:29:15;;;;;;;8.20;6.32;;;;;;;24.13;100.00;100629.66;5391959;33;34651;-87
2023/08/17 07:32:18;;;;;;;7.53;6.05;;;;;;;23.95;100.00;100626.19;5411001;32;34860;-88
2023/08/17 07:35:22;;;;;;;10.90;6.15;;;;;;;24.12;100.00;100634.34;5402173;32;33989;-88
2023/08/17 07:38:25;;;;;;;7.87;5.90;;;;;;;24.34;100.00;100626.00;5385783;33;34339;-84
2023/08/17 07:41:28;;;;;;;7.10;6.35;;;;;;;24.41;100.00;100626.59;5385372;33;34182;-84
2023/08/17 07:44:31;;;;;;;8.15;5.57;;;;;;;24.55;100.00;100629.75;5373631;33;33865;-84
2023/08/17 07:47:38;;;;;;;5.72;5.12;;;;;;;24.85;100.00;100629.12;5399536;33;33763;-84
2023/08/17 07:50:40;;;;;;;7.68;5.57;;;;;;;25.03;100.00;100636.09;5401306;33;34305;-84
2023/08/17 07:53:43;;;;;;;7.18;5.37;;;;;;;25.10;100.00;100631.19;5385567;33;33767;-84
2023/08/17 07:56:46;;;;;;;9.35;5.80;;;;;;;25.18;100.00;100624.34;5371959;33;34621;-84
2023/08/17 07:59:50;;;;;;;7.20;5.18;;;;;;;25.38;100.00;100622.78;5385243;33;34459;-84
2023/08/17 08:02:53;;;;;;;8.90;5.30;;;;;;;25.62;100.00;100625.88;5385566;33;34758;-84
2023/08/17 08:05:56;;;;;;;6.90;5.50;;;;;;;25.97;100.00;100611.34;5399295;33;34013;-83
2023/08/17 08:08:59;;;;;;;7.05;5.12;;;;;;;26.36;100.00;100608.88;5373169;33;34269;-84
2023/08/17 08:12:05;;;;;;;5.85;5.25;;;;;;;26.68;100.00;100621.56;5385493;33;34342;-84
2023/08/17 08:15:08;;;;;;;4.97;4.47;;;;;;;27.26;97.62;100623.87;5385221;33;33799;-84
2023/08/17 08:18:14;;;;;;;5.57;4.65;;;;;;;27.72;90.62;100618.94;5385051;33;33751;-84
2023/08/17 08:21:16;;;;;;;6.03;4.05;;;;;;;28.15;87.32;100621.97;5373401;33;33863;-84
2023/08/17 08:24:19;;;;;;;5.35;4.28;;;;;;;28.44;81.57;100618.44;5386355;33;33841;-84
2023/08/17 08:27:39;;;;;;;5.80;4.20;;;;;;;28.33;82.23;100606.59;5375547;33;34575;-84
2023/08/17 08:30:42;;;;;;;6.30;3.87;;;;;;;28.48;80.70;100606.47;5396977;33;33550;-84
2023/08/17 08:33:45;;;;;;;3.95;3.50;;;;;;;28.32;80.02;100602.19;5398466;33;34105;-84
2023/08/17 08:36:48;;;;;;;3.47;3.17;;;;;;;28.28;77.47;100603.84;5360838;33;34567;-84
2023/08/17 08:39:54;;;;;;;5.05;3.42;;;;;;;28.09;78.04;100601.00;5375049;33;34473;-84
2023/08/17 08:42:57;;;;;;;4.35;3.25;;;;;;;27.89;76.23;100613.03;5399542;33;34106;-83
2023/08/17 08:46:01;;;;;;;3.33;2.60;;;;;;;28.11;75.30;100611.75;5400262;33;33825;-84
2023/08/17 08:49:06;;;;;;;3.80;3.05;;;;;;;27.98;72.29;100611.31;5375623;33;33919;-84
2023/08/17 08:52:18;;;;;;;3.15;2.85;;;;;;;28.29;74.90;100607.47;5380354;33;34514;-84
2023/08/17 08:55:23;;;;;;;3.90;3.08;;;;;;;27.98;71.20;100602.19;5397718;33;34067;-84
2023/08/17 08:58:29;;;;;;;4.90;3.20;;;;;;;27.71;74.80;100605.41;5413282;32;33718;-84
2023/08/17 09:01:33;;;;;;;4.00;3.10;;;;;;;28.23;74.72;100609.47;5400786;32;34617;-83
2023/08/17 09:04:36;;;;;;;4.18;3.22;;;;;;;27.97;74.24;100606.06;5415729;32;33791;-84
2023/08/17 09:07:40;;;;;;;8.80;3.65;;;;;;;27.64;76.38;100605.69;5391436;32;34224;-84
2023/08/17 09:10:43;;;;;;;4.85;3.60;;;;;;;27.31;80.54;100596.22;5425712;32;33880;-84
2023/08/17 09:13:50;;;;;;;5.25;3.83;;;;;;;26.86;81.47;100596.09;5418934;32;33861;-87
2023/08/17 09:16:58;;;;;;;3.65;3.30;;;;;;;26.63;82.17;100599.47;5415973;32;34829;-88
2023/08/17 09:20:03;;;;;;;4.10;3.58;;;;;;;26.61;82.82;100598.91;5403406;32;33998;-85
2023/08/17 09:23:13;;;;;;;3.83;3.15;;;;;;;26.63;82.46;100600.31;5416301;32;33475;-83
2023/08/17 09:26:20;;;;;;;4.22;3.00;;;;;;;26.90;81.47;100596.34;5402920;32;34597;-84
2023/08/17 09:29:23;;;;;;;5.57;3.42;;;;;;;26.71;80.80;100589.81;5394441;32;33457;-83
2023/08/17 09:32:30;;;;;;;3.60;3.30;;;;;;;26.67;80.29;100589.50;5392907;32;33712;-84
2023/08/17 09:35:33;;;;;;;3.80;3.40;;;;;;;26.64;80.62;100587.31;5402824;32;33764;-84
2023/08/17 09:38:38;;;;;;;5.10;3.33;;;;;;;27.07;80.24;100584.97;5402267;32;34629;-84
2023/08/17 09:41:41;;;;;;;5.62;3.33;;;;;;;27.69;79.63;100583.53;5390164;32;34854;-84
2023/08/17 09:44:46;;;;;;;3.25;2.95;;;;;;;27.87;76.53;100572.94;5416335;32;33755;-84
2023/08/17 09:47:49;;;;;;;3.72;3.30;;;;;;;28.31;73.80;100583.88;5394597;32;33583;-84
2023/08/17 09:50:52;;;;;;;3.55;3.25;;;;;;;28.58;72.44;100577.84;5386330;32;33599;-84
2023/08/17 09:53:54;;;;;;;4.43;3.72;;;;;;;28.75;72.55;100571.00;5389869;32;34334;-84
2023/08/17 09:57:02;;;;;;;4.10;3.70;;;;;;;28.57;73.44;100569.81;5402888;32;33660;-83
2023/08/17 10:00:07;;;;;;;4.10;3.55;;;;;;;28.56;75.38;100559.88;5415530;32;33660;-84
2023/08/17 10:03:10;;;;;;;3.70;3.40;;;;;;;28.96;72.87;100563.28;5403755;32;33774;-84
2023/08/17 10:06:20;;;;;;;4.50;3.35;;;;;;;29.18;70.05;100560.81;5391914;32;33680;-84
2023/08/17 10:09:34;;;;;;;4.30;3.87;;;;;;;28.90;71.11;100565.28;5417102;32;34107;-84
2023/08/17 10:12:46;;;;;;;4.65;3.72;;;;;;;28.92;70.92;100571.34;5418916;32;33946;-83
2023/08/17 10:16:00;;;;;;;6.28;3.92;;;;;;;28.64;72.80;100570.31;5416851;32;33742;-84
2023/08/17 10:19:11;;;;;;;4.65;3.60;;;;;;;28.46;74.20;100561.63;5414936;32;34904;-84
2023/08/17 10:22:24;;;;;;;4.20;3.40;;;;;;;28.35;73.08;100564.78;5425473;32;33796;-84
2023/08/17 10:25:28;;;;;;;4.07;3.50;;;;;;;28.35;74.07;100562.00;5425826;32;33817;-84
2023/08/17 10:28:32;;;;;;;3.08;2.78;;;;;;;28.25;71.74;100582.28;5415953;32;34609;-84
2023/08/17 10:31:35;;;;;;;3.15;2.90;;;;;;;27.90;69.79;100562.09;5414784;32;33965;-87
2023/08/17 10:34:39;;;;;;;4.75;3.25;;;;;;;27.73;72.71;100558.87;5388211;32;34019;-88
2023/08/17 10:37:43;;;;;;;3.40;3.10;;;;;;;27.95;71.59;100564.00;5414739;32;34335;-88
2023/08/17 10:41:12;;;;;;;3.75;2.83;;;;;;;27.93;72.95;100564.28;5402276;32;34018;-85
2023/08/17 10:44:38;;;;;;;7.20;3.05;;;;;;;27.91;72.49;100552.72;5417805;32;34038;-84
2023/08/17 10:47:41;;;;;;;4.07;3.45;;;;;;;28.60;73.56;100566.47;5408037;32;34585;-83
2023/08/17 10:50:59;;;;;;;4.25;2.90;;;;;;;28.56;71.92;100563.47;5407084;32;33804;-84
2023/08/17 10:54:03;;;;;;;3.47;3.17;;;;;;;28.64;71.14;100570.31;5379836;32;33853;-83
2023/08/17 10:57:27;;;;;;;3.40;3.03;;;;;;;28.59;70.29;100560.09;5405569;32;34554;-83
2023/08/17 11:00:41;;;;;;;4.00;2.97;;;;;;;28.65;67.91;100570.00;5417194;32;34680;-83
2023/08/17 11:03:45;;;;;;;4.00;3.03;;;;;;;28.53;70.44;100572.37;5410137;32;34378;-83
2023/08/17 11:07:00;;;;;;;3.40;3.10;;;;;;;28.93;68.69;100571.06;5406173;32;34065;-83
2023/08/17 11:10:19;;;;;;;4.20;3.03;;;;;;;29.10;66.47;100567.00;5409572;32;34183;-83
2023/08/17 11:13:23;;;;;;;3.80;2.70;;;;;;;28.82;67.58;100565.97;5409445;32;35014;-84
2023/08/17 11:16:26;;;;;;;4.55;3.22;;;;;;;28.87;68.82;100560.31;5390750;32;33753;-87
2023/08/17 11:19:29;;;;;;;3.90;3.22;;;;;;;28.89;67.41;100566.41;5386050;32;33850;-88
2023/08/17 11:22:33;;;;;;;3.50;2.92;;;;;;;28.48;69.02;100566.88;5376588;32;33951;-87
2023/08/17 11:25:37;;;;;;;4.47;2.97;;;;;;;28.41;69.83;100566.37;5416707;32;34085;-84
2023/08/17 11:28:41;;;;;;;3.60;3.30;;;;;;;28.41;69.77;100566.37;5402910;32;34508;-84
2023/08/17 11:31:45;;;;;;;4.43;3.25;;;;;;;28.38;69.97;100559.47;5388057;32;34639;-84
2023/08/17 11:34:52;;;;;;;4.60;3.42;;;;;;;28.56;70.72;100557.94;5394830;32;33934;-84
2023/08/17 11:38:03;;;;;;;4.82;3.55;;;;;;;28.79;69.55;100561.00;5392892;32;33509;-84
2023/08/17 11:41:10;;;;;;;4.00;3.30;;;;;;;28.88;68.91;100562.81;5401745;32;34328;-84
2023/08/17 11:44:21;;;;;;;4.85;3.33;;;;;;;28.95;69.36;100554.12;5404091;32;34636;-84
2023/08/17 11:47:27;;;;;;;3.87;3.05;;;;;;;28.94;67.89;100558.03;5384387;33;34167;-84
2023/08/17 11:50:34;;;;;;;5.15;3.92;;;;;;;29.05;68.60;100558.78;5396643;33;33925;-84
2023/08/17 11:53:42;;;;;;;5.10;3.30;;;;;;;28.67;71.95;100553.94;5396134;33;34042;-84
2023/08/17 11:56:51;;;;;;;3.28;2.95;;;;;;;28.63;68.57;100560.34;5397248;32;33749;-83
2023/08/17 11:59:55;;;;;;;5.47;3.17;;;;;;;28.80;70.12;100555.16;5395503;33;33949;-84
2023/08/17 12:02:58;;;;;;;4.30;3.40;;;;;;;29.25;68.08;100549.34;5371963;33;34126;-83
2023/08/17 12:06:01;;;;;;;3.95;3.22;;;;;;;29.40;65.97;100543.59;5397714;33;34790;-83
2023/08/17 12:09:05;;;;;;;4.00;3.17;;;;;;;29.29;65.04;100544.84;5372022;33;33991;-84
2023/08/17 12:12:09;;;;;;;3.80;3.28;;;;;;;29.22;67.00;100538.84;5397515;33;34490;-84
2023/08/17 12:15:13;;;;;;;3.83;3.30;;;;;;;29.18;66.32;100544.16;5384349;33;33490;-84
2023/08/17 12:18:16;;;;;;;4.12;3.28;;;;;;;29.45;67.66;100534.34;5384522;33;33473;-84
2023/08/17 12:21:22;;;;;;;3.65;2.92;;;;;;;30.16;66.28;100532.37;5397958;32;33887;-84
2023/08/17 12:24:26;;;;;;;6.50;3.53;;;;;;;30.68;60.29;100538.63;5373405;32;33596;-84
2023/08/17 12:27:29;;;;;;;3.53;3.20;;;;;;;30.64;61.97;100532.06;5384233;33;33875;-84
2023/08/17 12:30:32;;;;;;;4.15;2.87;;;;;;;30.57;59.72;100532.47;5384227;33;33425;-83
2023/08/17 12:33:35;;;;;;;3.28;3.00;;;;;;;30.62;61.65;100523.19;5376398;33;33932;-84
2023/08/17 12:36:38;;;;;;;5.03;2.70;;;;;;;32.39;56.70;100530.47;5386578;33;33800;-84
2023/08/17 12:39:41;;;;;;;3.53;2.92;;;;;;;34.73;46.74;100517.72;5371988;33;33816;-84
2023/08/17 12:42:44;;;;;;;3.87;2.70;;;;;;;35.83;44.12;100523.16;5395689;32;33952;-83
2023/08/17 12:45:47;;;;;;;3.33;2.97;;;;;;;35.47;42.23;100516.22;5416009;32;33848;-82
2023/08/17 12:48:50;;;;;;;4.20;2.97;;;;;;;36.50;39.73;100513.50;5402560;32;34416;-83
2023/08/17 12:51:53;;;;;;;3.25;2.80;;;;;;;36.89;39.86;100501.97;5402062;32;34281;-83
2023/08/17 12:54:56;;;;;;;2.72;2.53;;;;;;;36.66;40.72;100505.25;5391221;32;33936;-82
2023/08/17 12:57:59;;;;;;;2.90;2.70;;;;;;;35.50;42.49;100492.31;5430112;32;33480;-83
2023/08/17 13:01:04;;;;;;;2.95;2.75;;;;;;;36.06;41.34;100496.41;5392613;32;33699;-87
2023/08/17 13:04:06;;;;;;;3.28;2.70;;;;;;;37.43;37.87;100479.97;5420928;32;33996;-87
2023/08/17 13:07:09;;;;;;;3.20;2.90;;;;;;;38.08;36.93;100481.78;5395099;32;33357;-87
2023/08/17 13:10:12;;;;;;;6.78;3.15;;;;;;;37.45;37.00;100476.81;5387513;33;34009;-84
2023/08/17 13:13:15;;;;;;;3.20;2.90;;;;;;;36.74;37.03;100475.44;5384531;33;32141;-84
2023/08/17 13:16:18;;;;;;;3.47;2.83;;;;;;;39.10;34.04;100464.16;5373011;33;34109;-83
2023/08/17 13:19:21;;;;;;;2.97;2.78;;;;;;;40.09;32.09;100459.69;5386964;33;34722;-83
2023/08/17 13:22:24;;;;;;;3.40;2.58;;;;;;;41.38;29.59;100464.44;5411868;32;35365;-84
2023/08/17 13:25:27;;;;;;;3.47;2.80;;;;;;;40.15;30.10;100465.81;5404480;32;35306;-84
2023/08/17 13:28:30;;;;;;;3.92;2.95;;;;;;;40.08;31.27;100474.19;5407138;32;35354;-83
2023/08/17 13:31:33;;;;;;;4.22;3.10;;;;;;;40.13;30.47;100466.22;5401810;32;35374;-83
2023/08/17 13:34:36;;;;;;;4.12;2.60;;;;;;;37.97;33.57;100466.63;5414621;32;34053;-83
2023/08/17 13:37:40;;;;;;;2.60;2.40;;;;;;;36.66;35.94;100457.56;5401073;32;34196;-83
2023/08/17 13:40:43;;;;;;;2.90;2.70;;;;;;;34.95;40.13;100463.44;5400138;32;33993;-83
2023/08/17 13:43:46;;;;;;;3.20;2.90;;;;;;;33.81;41.89;100446.34;5388729;32;35146;-83
2023/08/17 13:46:49;;;;;;;3.45;3.03;;;;;;;34.18;41.00;100451.50;5397321;32;33550;-83
2023/08/17 13:49:52;;;;;;;4.60;2.87;;;;;;;34.14;41.04;100448.59;5415005;32;33488;-83
2023/08/17 13:53:00;;;;;;;5.68;3.28;;;;;;;33.38;43.66;100444.44;5388839;32;34565;-83
2023/08/17 13:56:03;;;;;;;3.08;2.80;;;;;;;31.99;48.25;100448.84;5401356;32;34149;-83
2023/08/17 13:59:06;;;;;;;5.05;3.40;;;;;;;31.31;49.23;100453.59;5378144;32;33696;-83
2023/08/17 14:02:09;;;;;;;6.87;3.72;;;;;;;30.17;53.66;100457.09;5400864;32;33496;-83
2023/08/17 14:05:12;;;;;;;3.80;3.40;;;;;;;29.53;57.72;100453.22;5384216;32;165020;-83
2023/08/17 14:08:15;;;;;;;5.05;3.60;;;;;;;29.52;57.88;100444.09;5390674;32;34132;-84
2023/08/17 14:11:18;;;;;;;3.70;3.30;;;;;;;29.06;58.09;100450.34;5401754;32;34738;-84
2023/08/17 14:14:20;;;;;;;5.72;3.90;;;;;;;29.25;57.53;100449.50;5389083;32;34604;-84
2023/08/17 14:17:23;;;;;;;6.07;3.60;;;;;;;29.14;59.66;100451.63;5383382;33;33477;-84
2023/08/17 14:20:26;;;;;;;5.72;3.92;;;;;;;28.94;61.62;100448.00;5389676;32;33557;-84
2023/08/17 14:23:29;;;;;;;4.47;4.05;;;;;;;28.64;63.79;100465.03;5390129;32;34663;-84
2023/08/17 14:26:32;;;;;;;4.75;4.25;;;;;;;27.25;82.18;100462.72;5404599;32;33931;-84
2023/08/17 14:29:38;;;;;;;6.25;4.75;;;;;;;25.71;100.00;100456.88;5402643;32;33295;-84
2023/08/17 14:32:40;;;;;;;5.50;4.90;;;;;;;24.98;100.00;100457.03;5415384;32;33948;-83
2023/08/17 14:35:43;;;;;;;7.93;4.12;;;;;;;24.99;100.00;100447.69;5394114;33;34046;-84
2023/08/17 14:38:47;;;;;;;6.95;4.43;;;;;;;25.23;100.00;100455.47;5372384;33;33826;-83
2023/08/17 14:41:50;;;;;;;6.10;4.70;;;;;;;25.41;100.00;100445.81;5398830;32;33885;-83
2023/08/17 14:44:52;;;;;;;5.70;4.80;;;;;;;25.54;100.00;100456.31;5402817;32;33960;-83
2023/08/17 14:47:57;;;;;;;5.00;4.50;;;;;;;25.47;100.00;100453.81;5416096;32;34732;-84
2023/08/17 14:51:01;;;;;;;7.60;4.90;;;;;;;25.49;100.00;100457.13;5416838;32;34121;-83
2023/08/17 14:54:04;;;;;;;7.00;5.18;;;;;;;25.66;100.00;100448.59;5416379;32;33961;-83
2023/08/17 14:57:07;;;;;;;7.90;5.07;;;;;;;25.64;100.00;100456.31;5395147;32;34348;-83
2023/08/17 15:00:10;;;;;;;9.27;5.30;;;;;;;25.04;100.00;100455.97;5394699;33;33658;-83
2023/08/17 15:03:18;;;;;;;7.82;5.50;;;;;;;24.34;100.00;100449.06;5404976;32;33789;-84
2023/08/17 15:06:26;;;;;;;8.48;5.80;;;;;;;23.58;100.00;100449.38;5383590;32;34028;-83
2023/08/17 15:09:38;;;;;;;8.43;6.05;;;;;;;23.16;100.00;100442.66;5421785;32;33713;-87
2023/08/17 15:12:41;;;;;;;10.85;6.55;;;;;;;23.01;100.00;100437.00;5428291;32;34049;-87
2023/08/17 15:15:43;;;;;;;8.18;6.55;;;;;;;22.99;100.00;100444.66;5409794;32;33749;-84
2023/08/17 15:18:47;;;;;;;9.90;7.30;;;;;;;23.01;100.00;100448.00;5394708;32;34109;-84
2023/08/17 15:21:49;;;;;;;10.48;7.65;;;;;;;23.01;100.00;100439.75;5401709;32;33972;-83
2023/08/17 15:24:52;;;;;;;10.70;7.10;;;;;;;23.01;100.00;100439.75;5415286;32;34063;-83
2023/08/17 15:27:56;;;;;;;6.97;6.25;;;;;;;23.01;100.00;100448.00;5401375;32;33891;-84
2023/08/17 15:31:02;;;;;;;8.13;6.20;;;;;;;22.98;100.00;100454.00;5401229;32;34583;-84
2023/08/17 15:34:05;;;;;;;6.03;5.10;;;;;;;23.19;100.00;100449.53;5414611;32;33958;-84
2023/08/17 15:37:08;;;;;;;8.45;5.85;;;;;;;23.30;100.00;100446.63;5391116;32;33992;-84
2023/08/17 15:40:11;;;;;;;7.60;5.68;;;;;;;23.44;100.00;100451.72;5403224;32;33805;-84
2023/08/17 15:43:14;;;;;;;7.12;6.07;;;;;;;23.57;100.00;100451.25;5415624;32;34071;-84
2023/08/17 15:46:17;;;;;;;6.82;5.78;;;;;;;23.66;100.00;100446.09;5391704;32;34288;-83
2023/08/17 15:49:21;;;;;;;7.62;6.22;;;;;;;23.67;100.00;100445.84;5404446;32;33752;-83
2023/08/17 15:52:23;;;;;;;10.75;6.85;;;;;;;23.73;100.00;100449.50;5403985;32;33944;-83
